sensor_id;sensor_type;location;lat;lon;timestamp;P1;durP1;ratioP1;P2;durP2;ratioP2
13731;SDS011;6937;56.096;12.664;2022-07-21T00:00:50;7.75;;;7.05;;
13731;SDS011;6937;56.096;12.664;2022-07-21T00:03:16;9.25;;;7.57;;
13731;SDS011;6937;56.096;12.664;2022-07-21T00:05:41;7.65;;;6.95;;
13731;SDS011;6937;56.096;12.664;2022-07-21T00:08:07;7.57;;;6.90;;
13731;SDS011;6937;56.096;12.664;2022-07-21T00:10:32;8.85;;;6.45;;
13731;SDS011;6937;56.096;12.664;2022-07-21T00:12:58;7.38;;;6.70;;
13731;SDS011;6937;56.096;12.664;2022-07-21T00:15:25;7.82;;;7.13;;
13731;SDS011;6937;56.096;12.664;2022-07-21T00:17:52;7.30;;;6.60;;
13731;SDS011;6937;56.096;12.664;2022-07-21T00:20:17;7.60;;;6.95;;
13731;SDS011;6937;56.096;12.664;2022-07-21T00:22:43;7.22;;;6.53;;
13731;SDS011;6937;56.096;12.664;2022-07-21T00:25:09;7.07;;;6.47;;
13731;SDS011;6937;56.096;12.664;2022-07-21T00:27:36;7.50;;;6.80;;
13731;SDS011;6937;56.096;12.664;2022-07-21T00:30:03;8.05;;;7.22;;
13731;SDS011;6937;56.096;12.664;2022-07-21T00:32:29;7.28;;;6.53;;
13731;SDS011;6937;56.096;12.664;2022-07-21T00:34:55;7.63;;;6.93;;
13731;SDS011;6937;56.096;12.664;2022-07-21T00:37:20;7.47;;;6.68;;
13731;SDS011;6937;56.096;12.664;2022-07-21T00:39:49;7.78;;;6.93;;
13731;SDS011;6937;56.096;12.664;2022-07-21T00:42:29;7.53;;;6.65;;
13731;SDS011;6937;56.096;12.664;2022-07-21T00:44:56;8.50;;;6.95;;
13731;SDS011;6937;56.096;12.664;2022-07-21T00:47:23;7.85;;;7.15;;
13731;SDS011;6937;56.096;12.664;2022-07-21T00:49:50;7.20;;;6.50;;
13731;SDS011;6937;56.096;12.664;2022-07-21T00:52:16;7.88;;;7.15;;
13731;SDS011;6937;56.096;12.664;2022-07-21T00:54:42;7.22;;;6.63;;
13731;SDS011;6937;56.096;12.664;2022-07-21T00:57:08;8.63;;;6.70;;
13731;SDS011;6937;56.096;12.664;2022-07-21T00:59:34;7.97;;;7.20;;
13731;SDS011;6937;56.096;12.664;2022-07-21T01:02:00;7.25;;;6.65;;
13731;SDS011;6937;56.096;12.664;2022-07-21T01:04:26;7.47;;;6.70;;
13731;SDS011;6937;56.096;12.664;2022-07-21T01:06:52;7.47;;;6.78;;
13731;SDS011;6937;56.096;12.664;2022-07-21T01:09:19;7.93;;;7.13;;
13731;SDS011;6937;56.096;12.664;2022-07-21T01:11:46;7.72;;;6.90;;
13731;SDS011;6937;56.096;12.664;2022-07-21T01:14:11;7.35;;;6.75;;
13731;SDS011;6937;56.096;12.664;2022-07-21T01:16:37;11.80;;;6.93;;
13731;SDS011;6937;56.096;12.664;2022-07-21T01:19:04;7.82;;;6.80;;
13731;SDS011;6937;56.096;12.664;2022-07-21T01:21:40;7.47;;;6.78;;
13731;SDS011;6937;56.096;12.664;2022-07-21T01:24:08;7.70;;;6.95;;
13731;SDS011;6937;56.096;12.664;2022-07-21T01:26:39;7.35;;;6.68;;
13731;SDS011;6937;56.096;12.664;2022-07-21T01:29:10;7.65;;;6.93;;
13731;SDS011;6937;56.096;12.664;2022-07-21T01:31:36;7.40;;;6.70;;
13731;SDS011;6937;56.096;12.664;2022-07-21T01:34:02;7.63;;;7.00;;
13731;SDS011;6937;56.096;12.664;2022-07-21T01:36:28;8.07;;;6.60;;
13731;SDS011;6937;56.096;12.664;2022-07-21T01:38:54;7.57;;;6.90;;
13731;SDS011;6937;56.096;12.664;2022-07-21T01:41:37;7.43;;;6.82;;
13731;SDS011;6937;56.096;12.664;2022-07-21T01:44:04;7.57;;;6.88;;
13731;SDS011;6937;56.096;12.664;2022-07-21T01:46:33;7.75;;;6.97;;
13731;SDS011;6937;56.096;12.664;2022-07-21T01:49:00;7.47;;;6.72;;
13731;SDS011;6937;56.096;12.664;2022-07-21T01:51:26;7.57;;;6.93;;
13731;SDS011;6937;56.096;12.664;2022-07-21T01:53:52;7.60;;;6.93;;
13731;SDS011;6937;56.096;12.664;2022-07-21T01:56:21;7.20;;;6.68;;
13731;SDS011;6937;56.096;12.664;2022-07-21T01:58:50;8.13;;;7.07;;
13731;SDS011;6937;56.096;12.664;2022-07-21T02:01:18;8.45;;;6.90;;
13731;SDS011;6937;56.096;12.664;2022-07-21T02:03:45;7.20;;;6.57;;
13731;SDS011;6937;56.096;12.664;2022-07-21T02:06:11;7.72;;;6.93;;
13731;SDS011;6937;56.096;12.664;2022-07-21T02:08:37;7.60;;;6.85;;
13731;SDS011;6937;56.096;12.664;2022-07-21T02:11:03;8.50;;;7.45;;
13731;SDS011;6937;56.096;12.664;2022-07-21T02:13:29;7.47;;;6.78;;
13731;SDS011;6937;56.096;12.664;2022-07-21T02:15:54;7.20;;;6.55;;
13731;SDS011;6937;56.096;12.664;2022-07-21T02:18:20;7.45;;;6.75;;
13731;SDS011;6937;56.096;12.664;2022-07-21T02:20:46;8.50;;;7.18;;
13731;SDS011;6937;56.096;12.664;2022-07-21T02:23:15;8.13;;;7.35;;
13731;SDS011;6937;56.096;12.664;2022-07-21T02:25:41;7.15;;;6.55;;
13731;SDS011;6937;56.096;12.664;2022-07-21T02:28:07;7.88;;;7.10;;
13731;SDS011;6937;56.096;12.664;2022-07-21T02:30:32;7.80;;;7.00;;
13731;SDS011;6937;56.096;12.664;2022-07-21T02:32:57;8.07;;;7.22;;
13731;SDS011;6937;56.096;12.664;2022-07-21T02:35:23;7.63;;;6.80;;
13731;SDS011;6937;56.096;12.664;2022-07-21T02:37:48;7.47;;;6.85;;
13731;SDS011;6937;56.096;12.664;2022-07-21T02:40:14;7.68;;;6.90;;
13731;SDS011;6937;56.096;12.664;2022-07-21T02:42:39;7.07;;;6.38;;
13731;SDS011;6937;56.096;12.664;2022-07-21T02:45:05;7.00;;;6.45;;
13731;SDS011;6937;56.096;12.664;2022-07-21T02:47:32;7.13;;;6.53;;
13731;SDS011;6937;56.096;12.664;2022-07-21T02:49:57;6.95;;;6.35;;
13731;SDS011;6937;56.096;12.664;2022-07-21T02:52:23;6.95;;;6.25;;
13731;SDS011;6937;56.096;12.664;2022-07-21T02:54:48;7.28;;;6.57;;
13731;SDS011;6937;56.096;12.664;2022-07-21T02:57:13;7.53;;;6.60;;
13731;SDS011;6937;56.096;12.664;2022-07-21T02:59:39;6.90;;;6.30;;
13731;SDS011;6937;56.096;12.664;2022-07-21T03:02:04;7.07;;;6.47;;
13731;SDS011;6937;56.096;12.664;2022-07-21T03:04:30;7.72;;;7.03;;
13731;SDS011;6937;56.096;12.664;2022-07-21T03:06:55;6.55;;;5.95;;
13731;SDS011;6937;56.096;12.664;2022-07-21T03:09:20;7.82;;;7.07;;
13731;SDS011;6937;56.096;12.664;2022-07-21T03:11:46;7.45;;;6.75;;
13731;SDS011;6937;56.096;12.664;2022-07-21T03:14:11;7.00;;;6.30;;
13731;SDS011;6937;56.096;12.664;2022-07-21T03:16:37;7.57;;;6.72;;
13731;SDS011;6937;56.096;12.664;2022-07-21T03:19:02;7.00;;;6.40;;
13731;SDS011;6937;56.096;12.664;2022-07-21T03:21:27;7.63;;;6.90;;
13731;SDS011;6937;56.096;12.664;2022-07-21T03:23:53;7.10;;;6.45;;
13731;SDS011;6937;56.096;12.664;2022-07-21T03:26:18;7.20;;;6.60;;
13731;SDS011;6937;56.096;12.664;2022-07-21T03:28:44;7.13;;;6.45;;
13731;SDS011;6937;56.096;12.664;2022-07-21T03:31:09;7.28;;;6.57;;
13731;SDS011;6937;56.096;12.664;2022-07-21T03:33:35;7.75;;;7.05;;
13731;SDS011;6937;56.096;12.664;2022-07-21T03:36:01;7.53;;;6.93;;
13731;SDS011;6937;56.096;12.664;2022-07-21T03:38:27;8.05;;;7.35;;
13731;SDS011;6937;56.096;12.664;2022-07-21T03:40:53;8.00;;;7.40;;
13731;SDS011;6937;56.096;12.664;2022-07-21T03:43:18;7.47;;;6.75;;
13731;SDS011;6937;56.096;12.664;2022-07-21T03:45:44;7.80;;;6.60;;
13731;SDS011;6937;56.096;12.664;2022-07-21T03:48:10;7.00;;;6.40;;
13731;SDS011;6937;56.096;12.664;2022-07-21T03:50:36;7.85;;;6.68;;
13731;SDS011;6937;56.096;12.664;2022-07-21T03:53:04;7.32;;;6.70;;
13731;SDS011;6937;56.096;12.664;2022-07-21T03:55:29;7.75;;;7.13;;
13731;SDS011;6937;56.096;12.664;2022-07-21T03:58:00;7.65;;;6.95;;
13731;SDS011;6937;56.096;12.664;2022-07-21T04:02:57;6.95;;;6.35;;
13731;SDS011;6937;56.096;12.664;2022-07-21T04:05:23;6.82;;;6.32;;
13731;SDS011;6937;56.096;12.664;2022-07-21T04:07:50;7.25;;;6.65;;
13731;SDS011;6937;56.096;12.664;2022-07-21T04:10:17;7.75;;;7.05;;
13731;SDS011;6937;56.096;12.664;2022-07-21T04:12:45;7.85;;;7.03;;
13731;SDS011;6937;56.096;12.664;2022-07-21T04:15:11;7.63;;;7.03;;
13731;SDS011;6937;56.096;12.664;2022-07-21T04:17:37;7.22;;;6.63;;
13731;SDS011;6937;56.096;12.664;2022-07-21T04:20:04;8.70;;;7.80;;
13731;SDS011;6937;56.096;12.664;2022-07-21T04:22:30;7.97;;;7.22;;
13731;SDS011;6937;56.096;12.664;2022-07-21T04:24:56;8.25;;;7.40;;
13731;SDS011;6937;56.096;12.664;2022-07-21T04:27:21;7.97;;;7.32;;
13731;SDS011;6937;56.096;12.664;2022-07-21T04:29:47;8.00;;;7.30;;
13731;SDS011;6937;56.096;12.664;2022-07-21T04:32:12;7.88;;;7.15;;
13731;SDS011;6937;56.096;12.664;2022-07-21T04:34:38;8.00;;;7.25;;
13731;SDS011;6937;56.096;12.664;2022-07-21T04:37:03;7.85;;;7.20;;
13731;SDS011;6937;56.096;12.664;2022-07-21T04:39:28;7.15;;;6.55;;
13731;SDS011;6937;56.096;12.664;2022-07-21T04:41:54;7.50;;;6.90;;
13731;SDS011;6937;56.096;12.664;2022-07-21T04:44:20;7.60;;;6.90;;
13731;SDS011;6937;56.096;12.664;2022-07-21T04:46:45;8.27;;;7.50;;
13731;SDS011;6937;56.096;12.664;2022-07-21T04:49:11;7.80;;;7.05;;
13731;SDS011;6937;56.096;12.664;2022-07-21T04:51:37;8.55;;;7.65;;
13731;SDS011;6937;56.096;12.664;2022-07-21T04:54:02;7.85;;;7.00;;
13731;SDS011;6937;56.096;12.664;2022-07-21T04:56:27;9.10;;;7.70;;
13731;SDS011;6937;56.096;12.664;2022-07-21T04:58:53;7.97;;;7.13;;
13731;SDS011;6937;56.096;12.664;2022-07-21T05:01:18;7.88;;;7.10;;
13731;SDS011;6937;56.096;12.664;2022-07-21T05:03:44;8.60;;;7.65;;
13731;SDS011;6937;56.096;12.664;2022-07-21T05:06:10;8.27;;;7.40;;
13731;SDS011;6937;56.096;12.664;2022-07-21T05:08:35;8.52;;;7.72;;
13731;SDS011;6937;56.096;12.664;2022-07-21T05:11:01;8.70;;;7.80;;
13731;SDS011;6937;56.096;12.664;2022-07-21T05:13:26;7.25;;;6.45;;
13731;SDS011;6937;56.096;12.664;2022-07-21T05:15:51;7.93;;;7.13;;
13731;SDS011;6937;56.096;12.664;2022-07-21T05:18:17;8.88;;;7.65;;
13731;SDS011;6937;56.096;12.664;2022-07-21T05:20:42;7.82;;;7.13;;
13731;SDS011;6937;56.096;12.664;2022-07-21T05:23:08;9.20;;;7.43;;
13731;SDS011;6937;56.096;12.664;2022-07-21T05:25:33;8.05;;;7.25;;
13731;SDS011;6937;56.096;12.664;2022-07-21T05:28:00;7.30;;;6.60;;
13731;SDS011;6937;56.096;12.664;2022-07-21T05:30:26;8.82;;;6.55;;
13731;SDS011;6937;56.096;12.664;2022-07-21T05:32:52;10.80;;;7.40;;
13731;SDS011;6937;56.096;12.664;2022-07-21T05:35:17;9.35;;;6.88;;
13731;SDS011;6937;56.096;12.664;2022-07-21T05:37:43;7.72;;;6.95;;
13731;SDS011;6937;56.096;12.664;2022-07-21T05:40:08;8.10;;;7.30;;
13731;SDS011;6937;56.096;12.664;2022-07-21T05:42:34;10.48;;;7.03;;
13731;SDS011;6937;56.096;12.664;2022-07-21T05:45:01;10.20;;;6.72;;
13731;SDS011;6937;56.096;12.664;2022-07-21T05:47:28;8.35;;;7.03;;
13731;SDS011;6937;56.096;12.664;2022-07-21T05:49:54;8.93;;;7.00;;
13731;SDS011;6937;56.096;12.664;2022-07-21T05:52:20;7.82;;;6.50;;
13731;SDS011;6937;56.096;12.664;2022-07-21T05:54:45;7.88;;;7.07;;
13731;SDS011;6937;56.096;12.664;2022-07-21T05:57:10;9.30;;;7.45;;
13731;SDS011;6937;56.096;12.664;2022-07-21T05:59:36;7.90;;;7.10;;
13731;SDS011;6937;56.096;12.664;2022-07-21T06:02:01;8.52;;;7.43;;
13731;SDS011;6937;56.096;12.664;2022-07-21T06:04:27;8.10;;;7.10;;
13731;SDS011;6937;56.096;12.664;2022-07-21T06:06:53;7.10;;;6.40;;
13731;SDS011;6937;56.096;12.664;2022-07-21T06:09:18;10.07;;;6.93;;
13731;SDS011;6937;56.096;12.664;2022-07-21T06:11:44;8.23;;;6.80;;
13731;SDS011;6937;56.096;12.664;2022-07-21T06:14:10;8.23;;;6.60;;
13731;SDS011;6937;56.096;12.664;2022-07-21T06:16:35;7.07;;;6.22;;
13731;SDS011;6937;56.096;12.664;2022-07-21T06:19:01;8.23;;;7.00;;
13731;SDS011;6937;56.096;12.664;2022-07-21T06:21:27;8.75;;;7.00;;
13731;SDS011;6937;56.096;12.664;2022-07-21T06:23:53;10.13;;;7.53;;
13731;SDS011;6937;56.096;12.664;2022-07-21T06:26:18;7.82;;;6.82;;
13731;SDS011;6937;56.096;12.664;2022-07-21T06:28:44;8.07;;;7.28;;
13731;SDS011;6937;56.096;12.664;2022-07-21T06:31:09;8.38;;;7.40;;
13731;SDS011;6937;56.096;12.664;2022-07-21T06:33:34;7.72;;;6.80;;
13731;SDS011;6937;56.096;12.664;2022-07-21T06:36:00;7.63;;;7.03;;
13731;SDS011;6937;56.096;12.664;2022-07-21T06:38:25;9.73;;;7.38;;
13731;SDS011;6937;56.096;12.664;2022-07-21T06:40:51;9.38;;;7.95;;
13731;SDS011;6937;56.096;12.664;2022-07-21T06:43:16;8.13;;;7.32;;
13731;SDS011;6937;56.096;12.664;2022-07-21T06:45:42;9.23;;;7.15;;
13731;SDS011;6937;56.096;12.664;2022-07-21T06:48:07;7.38;;;6.68;;
13731;SDS011;6937;56.096;12.664;2022-07-21T06:50:34;9.50;;;7.15;;
13731;SDS011;6937;56.096;12.664;2022-07-21T06:53:00;7.63;;;6.72;;
13731;SDS011;6937;56.096;12.664;2022-07-21T06:55:26;7.53;;;6.80;;
13731;SDS011;6937;56.096;12.664;2022-07-21T06:57:53;9.02;;;6.85;;
13731;SDS011;6937;56.096;12.664;2022-07-21T07:00:18;8.13;;;7.32;;
13731;SDS011;6937;56.096;12.664;2022-07-21T07:02:44;11.30;;;7.15;;
13731;SDS011;6937;56.096;12.664;2022-07-21T07:05:09;8.43;;;6.80;;
13731;SDS011;6937;56.096;12.664;2022-07-21T07:07:35;7.82;;;7.03;;
13731;SDS011;6937;56.096;12.664;2022-07-21T07:10:00;8.88;;;8.00;;
13731;SDS011;6937;56.096;12.664;2022-07-21T07:12:27;7.50;;;6.80;;
13731;SDS011;6937;56.096;12.664;2022-07-21T07:14:53;7.32;;;6.63;;
13731;SDS011;6937;56.096;12.664;2022-07-21T07:17:18;12.43;;;7.45;;
13731;SDS011;6937;56.096;12.664;2022-07-21T07:19:44;8.30;;;7.40;;
13731;SDS011;6937;56.096;12.664;2022-07-21T07:22:10;8.55;;;7.18;;
13731;SDS011;6937;56.096;12.664;2022-07-21T07:24:35;7.88;;;6.97;;
13731;SDS011;6937;56.096;12.664;2022-07-21T07:27:01;8.18;;;7.38;;
13731;SDS011;6937;56.096;12.664;2022-07-21T07:29:27;12.32;;;7.78;;
13731;SDS011;6937;56.096;12.664;2022-07-21T07:31:53;7.68;;;6.45;;
13731;SDS011;6937;56.096;12.664;2022-07-21T07:34:20;13.88;;;7.18;;
13731;SDS011;6937;56.096;12.664;2022-07-21T07:36:46;7.50;;;6.30;;
13731;SDS011;6937;56.096;12.664;2022-07-21T07:39:11;8.63;;;7.25;;
13731;SDS011;6937;56.096;12.664;2022-07-21T07:41:37;8.90;;;7.40;;
13731;SDS011;6937;56.096;12.664;2022-07-21T07:44:03;12.50;;;7.80;;
13731;SDS011;6937;56.096;12.664;2022-07-21T07:46:28;8.05;;;6.72;;
13731;SDS011;6937;56.096;12.664;2022-07-21T07:48:54;10.88;;;7.53;;
13731;SDS011;6937;56.096;12.664;2022-07-21T07:51:20;7.82;;;7.03;;
13731;SDS011;6937;56.096;12.664;2022-07-21T07:53:46;10.80;;;7.00;;
13731;SDS011;6937;56.096;12.664;2022-07-21T07:56:11;9.38;;;7.50;;
13731;SDS011;6937;56.096;12.664;2022-07-21T07:58:36;8.73;;;7.25;;
13731;SDS011;6937;56.096;12.664;2022-07-21T08:01:02;8.68;;;7.10;;
13731;SDS011;6937;56.096;12.664;2022-07-21T08:03:28;9.52;;;7.15;;
13731;SDS011;6937;56.096;12.664;2022-07-21T08:05:54;8.82;;;7.07;;
13731;SDS011;6937;56.096;12.664;2022-07-21T08:08:21;10.10;;;7.55;;
13731;SDS011;6937;56.096;12.664;2022-07-21T08:10:47;8.05;;;7.25;;
13731;SDS011;6937;56.096;12.664;2022-07-21T08:13:13;8.00;;;7.30;;
13731;SDS011;6937;56.096;12.664;2022-07-21T08:15:40;9.65;;;7.07;;
13731;SDS011;6937;56.096;12.664;2022-07-21T08:18:06;7.70;;;7.00;;
13731;SDS011;6937;56.096;12.664;2022-07-21T08:20:32;8.20;;;7.40;;
13731;SDS011;6937;56.096;12.664;2022-07-21T08:22:59;14.05;;;7.88;;
13731;SDS011;6937;56.096;12.664;2022-07-21T08:25:24;8.63;;;7.80;;
13731;SDS011;6937;56.096;12.664;2022-07-21T08:27:49;15.57;;;8.20;;
13731;SDS011;6937;56.096;12.664;2022-07-21T08:30:15;9.23;;;7.45;;
13731;SDS011;6937;56.096;12.664;2022-07-21T08:32:40;8.38;;;7.57;;
13731;SDS011;6937;56.096;12.664;2022-07-21T08:35:06;9.90;;;7.72;;
13731;SDS011;6937;56.096;12.664;2022-07-21T08:37:37;7.93;;;7.13;;
13731;SDS011;6937;56.096;12.664;2022-07-21T08:40:03;10.60;;;7.45;;
13731;SDS011;6937;56.096;12.664;2022-07-21T08:42:30;9.73;;;7.10;;
13731;SDS011;6937;56.096;12.664;2022-07-21T08:44:55;9.82;;;7.75;;
13731;SDS011;6937;56.096;12.664;2022-07-21T08:47:21;8.60;;;7.40;;
13731;SDS011;6937;56.096;12.664;2022-07-21T08:49:46;9.25;;;7.43;;
13731;SDS011;6937;56.096;12.664;2022-07-21T08:52:12;8.70;;;7.55;;
13731;SDS011;6937;56.096;12.664;2022-07-21T08:54:38;8.75;;;7.20;;
13731;SDS011;6937;56.096;12.664;2022-07-21T08:57:03;10.77;;;7.55;;
13731;SDS011;6937;56.096;12.664;2022-07-21T08:59:29;8.18;;;7.30;;
13731;SDS011;6937;56.096;12.664;2022-07-21T09:01:54;10.00;;;7.28;;
13731;SDS011;6937;56.096;12.664;2022-07-21T09:04:24;10.05;;;7.30;;
13731;SDS011;6937;56.096;12.664;2022-07-21T09:09:25;11.10;;;7.20;;
13731;SDS011;6937;56.096;12.664;2022-07-21T09:11:51;7.90;;;6.63;;
13731;SDS011;6937;56.096;12.664;2022-07-21T09:14:19;9.10;;;6.72;;
13731;SDS011;6937;56.096;12.664;2022-07-21T09:16:54;8.05;;;6.55;;
13731;SDS011;6937;56.096;12.664;2022-07-21T09:19:21;8.93;;;6.72;;
13731;SDS011;6937;56.096;12.664;2022-07-21T09:21:51;10.75;;;7.07;;
13731;SDS011;6937;56.096;12.664;2022-07-21T09:24:18;8.43;;;6.85;;
13731;SDS011;6937;56.096;12.664;2022-07-21T09:27:05;11.23;;;7.18;;
13731;SDS011;6937;56.096;12.664;2022-07-21T09:34:50;7.72;;;6.95;;
13731;SDS011;6937;56.096;12.664;2022-07-21T09:37:18;7.18;;;6.50;;
13731;SDS011;6937;56.096;12.664;2022-07-21T09:39:45;9.15;;;6.85;;
13731;SDS011;6937;56.096;12.664;2022-07-21T09:42:25;12.57;;;7.35;;
13731;SDS011;6937;56.096;12.664;2022-07-21T09:44:56;11.60;;;7.43;;
13731;SDS011;6937;56.096;12.664;2022-07-21T09:47:22;9.02;;;7.53;;
13731;SDS011;6937;56.096;12.664;2022-07-21T09:49:50;8.27;;;6.90;;
13731;SDS011;6937;56.096;12.664;2022-07-21T09:54:47;8.07;;;7.28;;
13731;SDS011;6937;56.096;12.664;2022-07-21T09:57:13;7.63;;;6.88;;
13731;SDS011;6937;56.096;12.664;2022-07-21T09:59:42;8.90;;;7.72;;
13731;SDS011;6937;56.096;12.664;2022-07-21T10:02:10;9.85;;;7.00;;
13731;SDS011;6937;56.096;12.664;2022-07-21T10:04:45;9.00;;;7.60;;
13731;SDS011;6937;56.096;12.664;2022-07-21T10:07:12;7.68;;;6.88;;
13731;SDS011;6937;56.096;12.664;2022-07-21T10:09:38;8.85;;;7.35;;
13731;SDS011;6937;56.096;12.664;2022-07-21T10:12:05;9.80;;;7.22;;
13731;SDS011;6937;56.096;12.664;2022-07-21T10:14:30;9.98;;;7.60;;
13731;SDS011;6937;56.096;12.664;2022-07-21T10:16:56;10.05;;;7.30;;
13731;SDS011;6937;56.096;12.664;2022-07-21T10:19:30;11.23;;;7.90;;
13731;SDS011;6937;56.096;12.664;2022-07-21T10:24:40;9.18;;;7.03;;
13731;SDS011;6937;56.096;12.664;2022-07-21T10:27:07;11.93;;;7.65;;
13731;SDS011;6937;56.096;12.664;2022-07-21T10:32:18;8.00;;;7.28;;
13731;SDS011;6937;56.096;12.664;2022-07-21T10:34:46;8.55;;;7.53;;
13731;SDS011;6937;56.096;12.664;2022-07-21T10:37:43;11.43;;;7.45;;
13731;SDS011;6937;56.096;12.664;2022-07-21T10:40:05;9.57;;;7.28;;
13731;SDS011;6937;56.096;12.664;2022-07-21T10:45:32;8.85;;;7.70;;
13731;SDS011;6937;56.096;12.664;2022-07-21T10:47:59;9.63;;;7.05;;
13731;SDS011;6937;56.096;12.664;2022-07-21T10:50:41;7.63;;;6.93;;
13731;SDS011;6937;56.096;12.664;2022-07-21T10:53:16;10.15;;;6.60;;
13731;SDS011;6937;56.096;12.664;2022-07-21T10:55:50;11.32;;;7.07;;
13731;SDS011;6937;56.096;12.664;2022-07-21T11:00:52;9.70;;;6.97;;
13731;SDS011;6937;56.096;12.664;2022-07-21T11:03:19;10.27;;;6.90;;
13731;SDS011;6937;56.096;12.664;2022-07-21T11:09:14;7.18;;;5.88;;
13731;SDS011;6937;56.096;12.664;2022-07-21T11:11:29;8.85;;;7.22;;
13731;SDS011;6937;56.096;12.664;2022-07-21T11:14:22;7.97;;;6.13;;
13731;SDS011;6937;56.096;12.664;2022-07-21T11:17:00;8.77;;;6.72;;
13731;SDS011;6937;56.096;12.664;2022-07-21T11:19:31;7.93;;;6.68;;
13731;SDS011;6937;56.096;12.664;2022-07-21T11:24:35;12.80;;;6.60;;
13731;SDS011;6937;56.096;12.664;2022-07-21T11:27:02;7.47;;;6.70;;
13731;SDS011;6937;56.096;12.664;2022-07-21T11:29:29;11.63;;;6.97;;
13731;SDS011;6937;56.096;12.664;2022-07-21T11:31:55;9.10;;;6.60;;
13731;SDS011;6937;56.096;12.664;2022-07-21T11:34:22;12.95;;;7.10;;
13731;SDS011;6937;56.096;12.664;2022-07-21T11:36:57;12.63;;;7.10;;
13731;SDS011;6937;56.096;12.664;2022-07-21T11:39:23;7.65;;;6.05;;
13731;SDS011;6937;56.096;12.664;2022-07-21T11:41:49;8.10;;;6.97;;
13731;SDS011;6937;56.096;12.664;2022-07-21T11:44:21;11.18;;;6.85;;
13731;SDS011;6937;56.096;12.664;2022-07-21T11:49:15;9.73;;;7.60;;
13731;SDS011;6937;56.096;12.664;2022-07-21T11:51:47;10.60;;;7.57;;
13731;SDS011;6937;56.096;12.664;2022-07-21T11:54:20;8.48;;;7.30;;
13731;SDS011;6937;56.096;12.664;2022-07-21T11:56:47;9.13;;;7.30;;
13731;SDS011;6937;56.096;12.664;2022-07-21T11:59:14;8.05;;;7.25;;
13731;SDS011;6937;56.096;12.664;2022-07-21T12:01:49;13.73;;;8.10;;
13731;SDS011;6937;56.096;12.664;2022-07-21T12:04:25;10.10;;;8.00;;
13731;SDS011;6937;56.096;12.664;2022-07-21T12:06:52;9.30;;;8.00;;
13731;SDS011;6937;56.096;12.664;2022-07-21T12:09:17;10.60;;;7.95;;
13731;SDS011;6937;56.096;12.664;2022-07-21T12:11:43;8.30;;;7.40;;
13731;SDS011;6937;56.096;12.664;2022-07-21T12:14:09;8.95;;;8.05;;
13731;SDS011;6937;56.096;12.664;2022-07-21T12:16:46;9.82;;;8.00;;
13731;SDS011;6937;56.096;12.664;2022-07-21T12:19:15;8.73;;;7.60;;
13731;SDS011;6937;56.096;12.664;2022-07-21T12:21:44;11.38;;;8.43;;
13731;SDS011;6937;56.096;12.664;2022-07-21T12:24:10;13.70;;;10.07;;
13731;SDS011;6937;56.096;12.664;2022-07-21T12:26:36;11.13;;;9.10;;
13731;SDS011;6937;56.096;12.664;2022-07-21T12:29:01;11.40;;;9.07;;
13731;SDS011;6937;56.096;12.664;2022-07-21T12:31:27;12.90;;;11.18;;
13731;SDS011;6937;56.096;12.664;2022-07-21T12:33:54;15.15;;;11.35;;
13731;SDS011;6937;56.096;12.664;2022-07-21T12:36:23;13.75;;;11.70;;
13731;SDS011;6937;56.096;12.664;2022-07-21T12:38:50;13.07;;;11.15;;
13731;SDS011;6937;56.096;12.664;2022-07-21T12:41:17;13.93;;;12.45;;
13731;SDS011;6937;56.096;12.664;2022-07-21T12:43:52;17.50;;;12.93;;
13731;SDS011;6937;56.096;12.664;2022-07-21T12:46:19;16.48;;;12.40;;
13731;SDS011;6937;56.096;12.664;2022-07-21T12:48:45;16.02;;;14.02;;
13731;SDS011;6937;56.096;12.664;2022-07-21T12:51:12;19.33;;;14.10;;
13731;SDS011;6937;56.096;12.664;2022-07-21T12:53:50;14.32;;;12.85;;
13731;SDS011;6937;56.096;12.664;2022-07-21T12:56:24;15.90;;;13.38;;
13731;SDS011;6937;56.096;12.664;2022-07-21T12:58:52;14.18;;;12.35;;
13731;SDS011;6937;56.096;12.664;2022-07-21T13:01:19;12.88;;;10.45;;
13731;SDS011;6937;56.096;12.664;2022-07-21T13:03:46;13.02;;;10.40;;
13731;SDS011;6937;56.096;12.664;2022-07-21T13:06:11;12.02;;;10.55;;
13731;SDS011;6937;56.096;12.664;2022-07-21T13:08:42;11.27;;;10.10;;
13731;SDS011;6937;56.096;12.664;2022-07-21T13:11:08;12.80;;;11.35;;
13731;SDS011;6937;56.096;12.664;2022-07-21T13:13:37;11.00;;;9.82;;
13731;SDS011;6937;56.096;12.664;2022-07-21T13:16:03;12.50;;;10.80;;
13731;SDS011;6937;56.096;12.664;2022-07-21T13:18:29;12.60;;;10.68;;
13731;SDS011;6937;56.096;12.664;2022-07-21T13:20:54;11.52;;;10.32;;
13731;SDS011;6937;56.096;12.664;2022-07-21T13:23:19;15.02;;;11.05;;
13731;SDS011;6937;56.096;12.664;2022-07-21T13:25:45;15.00;;;10.50;;
13731;SDS011;6937;56.096;12.664;2022-07-21T13:28:11;18.38;;;14.07;;
13731;SDS011;6937;56.096;12.664;2022-07-21T13:30:37;20.20;;;14.23;;
13731;SDS011;6937;56.096;12.664;2022-07-21T13:33:03;15.43;;;13.23;;
13731;SDS011;6937;56.096;12.664;2022-07-21T13:35:28;14.77;;;12.63;;
13731;SDS011;6937;56.096;12.664;2022-07-21T13:37:54;17.35;;;13.57;;
13731;SDS011;6937;56.096;12.664;2022-07-21T13:40:20;15.27;;;12.23;;
13731;SDS011;6937;56.096;12.664;2022-07-21T13:42:46;13.88;;;11.73;;
13731;SDS011;6937;56.096;12.664;2022-07-21T13:45:11;16.92;;;11.98;;
13731;SDS011;6937;56.096;12.664;2022-07-21T13:47:39;13.90;;;12.48;;
13731;SDS011;6937;56.096;12.664;2022-07-21T13:50:04;18.85;;;14.60;;
13731;SDS011;6937;56.096;12.664;2022-07-21T13:52:31;18.15;;;16.13;;
13731;SDS011;6937;56.096;12.664;2022-07-21T13:54:57;24.92;;;18.40;;
13731;SDS011;6937;56.096;12.664;2022-07-21T13:57:22;20.02;;;16.73;;
13731;SDS011;6937;56.096;12.664;2022-07-21T13:59:48;16.70;;;14.88;;
13731;SDS011;6937;56.096;12.664;2022-07-21T14:02:13;17.92;;;14.35;;
13731;SDS011;6937;56.096;12.664;2022-07-21T14:04:39;16.35;;;13.38;;
13731;SDS011;6937;56.096;12.664;2022-07-21T14:07:04;14.20;;;12.63;;
13731;SDS011;6937;56.096;12.664;2022-07-21T14:09:30;14.25;;;12.75;;
13731;SDS011;6937;56.096;12.664;2022-07-21T14:11:55;14.82;;;12.18;;
13731;SDS011;6937;56.096;12.664;2022-07-21T14:14:22;16.73;;;13.88;;
13731;SDS011;6937;56.096;12.664;2022-07-21T14:16:51;17.75;;;14.40;;
13731;SDS011;6937;56.096;12.664;2022-07-21T14:19:18;23.15;;;18.60;;
13731;SDS011;6937;56.096;12.664;2022-07-21T14:21:44;20.40;;;17.13;;
13731;SDS011;6937;56.096;12.664;2022-07-21T14:24:09;20.77;;;17.25;;
13731;SDS011;6937;56.096;12.664;2022-07-21T14:26:54;15.52;;;14.05;;
13731;SDS011;6937;56.096;12.664;2022-07-21T14:29:19;16.60;;;14.50;;
13731;SDS011;6937;56.096;12.664;2022-07-21T14:31:44;16.73;;;14.93;;
13731;SDS011;6937;56.096;12.664;2022-07-21T14:34:10;20.25;;;18.13;;
13731;SDS011;6937;56.096;12.664;2022-07-21T14:36:35;23.20;;;18.30;;
13731;SDS011;6937;56.096;12.664;2022-07-21T14:39:00;21.08;;;17.85;;
13731;SDS011;6937;56.096;12.664;2022-07-21T14:41:26;20.85;;;18.23;;
13731;SDS011;6937;56.096;12.664;2022-07-21T14:43:51;21.50;;;16.90;;
13731;SDS011;6937;56.096;12.664;2022-07-21T14:46:16;18.80;;;16.10;;
13731;SDS011;6937;56.096;12.664;2022-07-21T14:48:42;18.08;;;15.85;;
13731;SDS011;6937;56.096;12.664;2022-07-21T14:51:07;20.20;;;17.48;;
13731;SDS011;6937;56.096;12.664;2022-07-21T14:53:33;20.23;;;16.92;;
13731;SDS011;6937;56.096;12.664;2022-07-21T14:55:58;22.13;;;17.40;;
13731;SDS011;6937;56.096;12.664;2022-07-21T14:58:24;21.15;;;17.50;;
13731;SDS011;6937;56.096;12.664;2022-07-21T15:00:49;22.38;;;18.63;;
13731;SDS011;6937;56.096;12.664;2022-07-21T15:03:15;19.60;;;16.58;;
13731;SDS011;6937;56.096;12.664;2022-07-21T15:05:41;19.98;;;17.08;;
13731;SDS011;6937;56.096;12.664;2022-07-21T15:08:06;19.08;;;16.65;;
13731;SDS011;6937;56.096;12.664;2022-07-21T15:10:31;17.05;;;15.27;;